createdAt,value
2022-11-04T00:00:28.596Z,88.55
2022-11-04T00:01:28.418Z,88.57
2022-11-04T00:02:30.260Z,88.52
2022-11-04T00:03:32.405Z,88.44
2022-11-04T00:04:35.093Z,88.10
2022-11-04T00:05:37.952Z,87.70
2022-11-04T00:06:40.310Z,87.31
2022-11-04T00:07:41.995Z,87.09
2022-11-04T00:08:52.785Z,86.85
2022-11-04T00:09:55.064Z,86.59
2022-11-04T00:10:58.866Z,86.49
2022-11-04T00:12:00.585Z,86.78
2022-11-04T00:13:02.541Z,87.01
2022-11-04T00:14:06.303Z,87.40
2022-11-04T00:15:08.674Z,87.40
2022-11-04T00:16:12.733Z,87.42
2022-11-04T00:17:15.109Z,87.53
2022-11-04T00:18:17.228Z,87.58
2022-11-04T00:19:19.238Z,87.59
2022-11-04T00:20:21.114Z,87.80
2022-11-04T00:21:22.858Z,87.74
2022-11-04T00:22:25.345Z,88.19
2022-11-04T00:23:27.338Z,88.19
2022-11-04T00:24:29.460Z,87.82
2022-11-04T00:25:31.335Z,87.90
2022-11-04T00:26:33.383Z,88.04
2022-11-04T00:27:35.134Z,88.08
2022-11-04T00:28:36.847Z,88.08
2022-11-04T00:29:38.578Z,88.05
2022-11-04T00:30:40.318Z,87.93
2022-11-04T00:31:41.949Z,87.93
2022-11-04T00:32:43.681Z,88.39
2022-11-04T00:33:46.716Z,88.74
2022-11-04T00:34:48.666Z,90.22
2022-11-04T00:35:51.963Z,91.46
2022-11-04T00:36:54.313Z,91.89
2022-11-04T00:37:56.408Z,92.67
2022-11-04T00:38:58.317Z,93.37
2022-11-04T00:40:00.054Z,93.92
2022-11-04T00:41:01.791Z,93.92
2022-11-04T00:42:03.675Z,94.12
2022-11-04T00:43:05.675Z,94.22
2022-11-04T00:44:07.579Z,94.22
2022-11-04T00:45:10.035Z,93.82
2022-11-04T00:46:12.853Z,93.62
2022-11-04T00:47:15.057Z,93.39
2022-11-04T00:48:17.761Z,93.06
2022-11-04T00:49:19.484Z,92.87
2022-11-04T00:50:21.332Z,92.96
2022-11-04T00:51:23.901Z,93.47
2022-11-04T00:52:25.649Z,93.47
2022-11-04T00:53:27.272Z,93.38
2022-11-04T00:54:29.107Z,93.44
2022-11-04T00:55:30.765Z,93.31
2022-11-04T00:56:32.690Z,92.87
2022-11-04T00:57:34.341Z,92.50
2022-11-04T00:58:36.351Z,92.24
2022-11-04T00:59:39.310Z,92.02
2022-11-04T01:00:41.179Z,91.81
2022-11-04T01:01:42.994Z,91.46
2022-11-04T01:02:45.758Z,91.22
2022-11-04T01:03:50.318Z,90.90
2022-11-04T01:04:54.183Z,90.67
2022-11-04T01:05:58.032Z,90.32
2022-11-04T01:07:02.031Z,89.95
2022-11-04T01:08:04.296Z,89.67
2022-11-04T01:09:10.237Z,89.50
2022-11-04T01:10:12.584Z,89.31
2022-11-04T01:11:16.237Z,89.13
2022-11-04T01:12:18.019Z,88.94
2022-11-04T01:13:20.281Z,88.89
2022-11-04T01:14:23.334Z,88.82
2022-11-04T01:15:25.198Z,88.72
2022-11-04T01:17:30.421Z,88.35
2022-11-04T01:18:32.305Z,88.28
2022-11-04T01:19:34.348Z,88.27
2022-11-04T01:20:36.377Z,88.21
2022-11-04T01:21:38.288Z,88.05
2022-11-04T01:22:40.828Z,87.91
2022-11-04T01:23:44.246Z,87.87
2022-11-04T01:24:46.081Z,87.90
2022-11-04T01:25:47.953Z,87.75
2022-11-04T01:26:49.721Z,87.59
2022-11-04T01:27:51.749Z,87.39
2022-11-04T01:28:55.275Z,86.96
2022-11-04T01:29:57.282Z,86.74
2022-11-04T01:30:59.582Z,86.55
2022-11-04T01:32:02.412Z,86.57
2022-11-04T01:33:04.457Z,86.67
2022-11-04T01:34:07.094Z,86.95
2022-11-04T01:35:09.699Z,87.08
2022-11-04T01:36:13.628Z,87.06
2022-11-04T01:37:17.456Z,87.07
2022-11-04T01:38:19.265Z,87.01
2022-11-04T01:39:20.999Z,87.05
2022-11-04T01:40:22.867Z,86.96
2022-11-04T01:41:27.927Z,86.53
2022-11-04T01:42:29.865Z,86.30
2022-11-04T01:43:53.685Z,86.03
2022-11-04T01:45:00.611Z,86.03
2022-11-04T01:46:03.646Z,86.38
2022-11-04T01:47:07.773Z,86.48
2022-11-04T01:48:17.984Z,86.70
2022-11-04T01:49:29.945Z,87.01
2022-11-04T01:50:34.280Z,87.12
2022-11-04T01:51:39.600Z,87.23
2022-11-04T01:53:00.031Z,87.29
2022-11-04T01:54:05.560Z,87.45
2022-11-04T01:55:11.128Z,87.63
2022-11-04T01:56:15.182Z,88.04
2022-11-04T01:57:20.453Z,88.22
2022-11-04T01:58:32.063Z,88.39
2022-11-04T01:59:37.655Z,88.66
2022-11-04T02:00:41.474Z,88.86
2022-11-04T02:01:44.856Z,88.56
2022-11-04T02:02:59.442Z,88.64
2022-11-04T02:04:01.584Z,88.97
2022-11-04T02:05:03.710Z,89.74
2022-11-04T02:06:07.556Z,90.53
2022-11-04T02:07:10.713Z,91.96
2022-11-04T02:08:15.693Z,92.91
2022-11-04T02:09:19.464Z,94.16
2022-11-04T02:10:24.893Z,94.50
2022-11-04T02:11:26.625Z,95.07
2022-11-04T02:12:28.447Z,95.64
2022-11-04T02:13:33.598Z,96.18
2022-11-04T02:14:36.824Z,96.69
2022-11-04T02:15:54.586Z,97.05
2022-11-04T02:17:21.416Z,97.48
2022-11-04T02:18:38.865Z,97.42
2022-11-04T02:19:53.440Z,97.33
2022-11-04T02:21:19.158Z,97.43
2022-11-04T02:22:49.748Z,97.54
2022-11-04T02:24:19.735Z,97.90
2022-11-04T02:25:31.103Z,97.97
2022-11-04T02:26:39.628Z,98.26
2022-11-04T02:28:02.057Z,98.20
2022-11-04T02:29:22.509Z,97.50
2022-11-04T02:30:26.654Z,97.23
2022-11-04T02:31:41.371Z,96.99
2022-11-04T02:32:55.955Z,97.00
2022-11-04T02:34:04.549Z,97.54
2022-11-04T02:35:19.030Z,97.96
2022-11-04T02:36:24.661Z,98.20
2022-11-04T02:37:59.140Z,97.88
2022-11-04T02:39:23.188Z,97.99
2022-11-04T02:40:41.140Z,97.85
2022-11-04T02:41:55.826Z,96.92
2022-11-04T02:43:01.442Z,95.94
2022-11-04T02:44:15.471Z,96.13
2022-11-04T02:47:07.460Z,98.22
2022-11-04T02:48:34.576Z,98.86
2022-11-04T02:49:49.177Z,99.66
2022-11-04T02:50:57.673Z,100.00
2022-11-04T02:52:12.127Z,100.00
2022-11-04T02:53:32.093Z,100.00
2022-11-04T02:54:43.603Z,100.00
2022-11-04T02:55:51.916Z,100.00
2022-11-04T02:56:57.512Z,100.00
2022-11-04T02:58:04.024Z,100.00
2022-11-04T02:59:12.559Z,100.00
2022-11-04T03:00:15.429Z,100.00
2022-11-04T03:01:20.337Z,100.00
2022-11-04T03:02:28.690Z,100.00
2022-11-04T03:03:34.338Z,100.00
2022-11-04T03:04:39.993Z,100.00
2022-11-04T03:05:45.563Z,100.00
2022-11-04T03:06:50.220Z,100.00
2022-11-04T03:07:55.792Z,100.00
2022-11-04T03:09:00.436Z,100.00
2022-11-04T03:10:06.396Z,100.00
2022-11-04T03:11:15.458Z,100.00
2022-11-04T03:12:21.065Z,100.00
2022-11-04T03:13:38.904Z,100.00
2022-11-04T03:14:44.388Z,100.00
2022-11-04T03:15:50.912Z,100.00
2022-11-04T03:16:56.525Z,100.00
2022-11-04T03:18:08.328Z,100.00
2022-11-04T03:19:26.480Z,100.00
2022-11-04T03:20:30.619Z,100.00
2022-11-04T03:21:35.327Z,100.00
2022-11-04T03:22:38.332Z,100.00
2022-11-04T03:23:40.920Z,100.00
2022-11-04T03:24:45.262Z,100.00
2022-11-04T03:25:50.849Z,100.00
2022-11-04T03:27:08.490Z,100.00
2022-11-04T03:28:30.891Z,100.00
2022-11-04T03:29:39.280Z,100.00
2022-11-04T03:30:45.168Z,100.00
2022-11-04T03:32:03.427Z,100.00
2022-11-04T03:33:30.341Z,100.00
2022-11-04T03:34:32.773Z,100.00
2022-11-04T03:35:34.680Z,100.00
2022-11-04T03:36:36.883Z,100.00
2022-11-04T03:37:38.869Z,100.00
2022-11-04T03:38:40.951Z,100.00
2022-11-04T03:39:42.952Z,100.00
2022-11-04T03:40:46.300Z,100.00
2022-11-04T03:41:51.866Z,100.00
2022-11-04T03:42:57.336Z,100.00
2022-11-04T03:43:59.470Z,100.00
2022-11-04T03:45:02.696Z,100.00
2022-11-04T03:46:05.074Z,100.00
2022-11-04T03:47:08.049Z,100.00
2022-11-04T03:48:10.908Z,100.00
2022-11-04T03:49:14.537Z,100.00
2022-11-04T03:50:29.243Z,100.00
2022-11-04T03:51:31.105Z,100.00
2022-11-04T03:52:33.710Z,100.00
2022-11-04T03:53:35.831Z,100.00
2022-11-04T03:54:38.509Z,100.00
2022-11-04T03:55:46.912Z,100.00
2022-11-04T03:57:08.615Z,100.00
2022-11-04T03:58:29.623Z,100.00
2022-11-04T04:01:29.673Z,100.00
2022-11-04T04:02:35.936Z,100.00
2022-11-04T04:03:44.318Z,100.00
2022-11-04T04:05:01.853Z,100.00
2022-11-04T04:06:08.919Z,100.00
2022-11-04T04:07:14.415Z,100.00
2022-11-04T04:08:48.977Z,100.00
2022-11-04T04:09:57.252Z,100.00
2022-11-04T04:11:18.291Z,100.00
2022-11-04T04:12:23.888Z,100.00
2022-11-04T04:13:35.430Z,100.00
2022-11-04T04:14:44.153Z,100.00
2022-11-04T04:15:58.596Z,100.00
2022-11-04T04:17:04.242Z,100.00
2022-11-04T04:18:10.145Z,100.00
2022-11-04T04:19:18.935Z,100.00
2022-11-04T04:20:24.495Z,100.00
2022-11-04T04:21:39.086Z,100.00
2022-11-04T04:22:51.138Z,100.00
2022-11-04T04:23:56.372Z,100.00
2022-11-04T04:25:01.784Z,100.00
2022-11-04T04:26:07.678Z,100.00
2022-11-04T04:27:13.213Z,100.00
2022-11-04T04:28:18.947Z,100.00
2022-11-04T04:29:22.901Z,100.00
2022-11-04T04:30:25.342Z,100.00
2022-11-04T04:31:29.981Z,100.00
2022-11-04T04:32:44.531Z,100.00
2022-11-04T04:33:46.686Z,100.00
2022-11-04T04:34:48.544Z,100.00
2022-11-04T04:35:56.837Z,100.00
2022-11-04T04:37:08.428Z,100.00
2022-11-04T04:38:25.962Z,100.00
2022-11-04T04:39:43.670Z,100.00
2022-11-04T04:40:49.335Z,100.00
2022-11-04T04:41:53.775Z,100.00
2022-11-04T04:42:55.715Z,100.00
2022-11-04T04:43:58.332Z,100.00
2022-11-04T04:45:03.587Z,100.00
2022-11-04T06:51:30.535Z,100.00
2022-11-04T06:52:32.401Z,100.00
2022-11-04T06:53:34.232Z,100.00
2022-11-04T06:54:35.929Z,100.00
2022-11-04T06:55:38.096Z,100.00
2022-11-04T06:56:40.405Z,100.00
2022-11-04T06:57:42.170Z,100.00
2022-11-04T06:58:49.412Z,100.00
2022-11-04T06:59:51.219Z,100.00
2022-11-04T07:00:53.142Z,100.00
2022-11-04T07:01:56.256Z,100.00
2022-11-04T07:02:59.250Z,100.00
2022-11-04T07:04:02.922Z,100.00
2022-11-04T07:05:05.521Z,100.00
2022-11-04T07:06:09.665Z,100.00
2022-11-04T07:07:11.608Z,100.00
2022-11-04T07:08:14.075Z,100.00
2022-11-04T07:09:17.025Z,100.00
2022-11-04T07:10:20.039Z,100.00
2022-11-04T07:11:23.589Z,100.00
2022-11-04T07:12:25.945Z,100.00
2022-11-04T07:13:28.169Z,100.00
2022-11-04T07:14:30.006Z,100.00
2022-11-04T07:15:32.046Z,100.00
2022-11-04T07:16:34.053Z,100.00
2022-11-04T07:17:36.001Z,100.00
2022-11-04T07:18:38.422Z,100.00
2022-11-04T07:19:40.221Z,100.00
2022-11-04T07:20:42.998Z,100.00
2022-11-04T07:21:45.161Z,100.00
2022-11-04T07:22:47.079Z,100.00
2022-11-04T07:23:48.837Z,100.00
2022-11-04T07:24:50.692Z,100.00
2022-11-04T07:25:52.440Z,100.00
2022-11-04T07:26:54.899Z,100.00
2022-11-04T07:28:01.064Z,100.00
2022-11-04T07:29:01.020Z,100.00
2022-11-04T07:30:04.255Z,100.00
2022-11-04T07:31:07.966Z,100.00
2022-11-04T07:32:10.045Z,100.00
2022-11-04T07:33:11.999Z,100.00
2022-11-04T07:34:14.482Z,100.00
2022-11-04T07:35:16.729Z,100.00
2022-11-04T07:36:19.802Z,100.00
2022-11-04T07:37:21.549Z,100.00
2022-11-04T07:38:24.159Z,100.00
2022-11-04T07:39:25.999Z,100.00
2022-11-04T07:40:27.737Z,100.00
2022-11-04T07:41:29.515Z,100.00
2022-11-04T07:42:31.801Z,100.00
2022-11-04T07:43:35.610Z,100.00
2022-11-04T07:44:38.651Z,100.00
2022-11-04T07:45:40.722Z,99.91
2022-11-04T07:46:43.067Z,99.81
2022-11-04T07:47:45.175Z,99.60
2022-11-04T07:48:47.723Z,99.69
2022-11-04T07:49:49.564Z,99.71
2022-11-04T07:50:57.541Z,100.00
2022-11-04T07:51:59.656Z,100.00
2022-11-04T07:53:01.593Z,100.00
2022-11-04T07:54:03.968Z,100.00
2022-11-04T07:55:06.721Z,100.00
2022-11-04T07:56:11.759Z,100.00
2022-11-04T07:57:13.688Z,100.00
2022-11-04T07:58:16.082Z,100.00
2022-11-04T07:59:17.932Z,100.00
2022-11-04T08:00:20.047Z,100.00
2022-11-04T08:01:24.030Z,100.00
2022-11-04T08:02:31.095Z,100.00
2022-11-04T08:03:30.413Z,100.00
2022-11-04T08:04:33.855Z,100.00
2022-11-04T08:05:35.817Z,100.00
2022-11-04T08:06:37.640Z,100.00
2022-11-04T08:07:40.609Z,100.00
2022-11-04T08:08:43.573Z,100.00
2022-11-04T08:09:47.205Z,100.00
2022-11-04T08:10:54.885Z,100.00
2022-11-04T08:11:56.738Z,100.00
2022-11-04T08:12:58.674Z,99.71
2022-11-04T08:14:03.482Z,99.77
2022-11-04T08:15:08.012Z,99.62
2022-11-04T08:16:13.666Z,99.89
2022-11-04T08:17:16.310Z,99.79
2022-11-04T08:18:19.117Z,99.82
2022-11-04T08:19:21.023Z,99.62
2022-11-04T08:20:22.803Z,99.77
2022-11-04T08:21:24.676Z,99.82
2022-11-04T08:22:30.270Z,98.92
2022-11-04T08:23:32.251Z,98.69
2022-11-04T08:24:34.405Z,98.14
2022-11-04T08:25:36.145Z,97.81
2022-11-04T08:26:38.432Z,97.95
2022-11-04T08:27:40.751Z,97.83
2022-11-04T08:28:42.752Z,97.84
2022-11-04T08:29:44.560Z,97.85
2022-11-04T08:30:55.897Z,98.02
2022-11-04T08:31:57.802Z,98.09
2022-11-04T08:33:01.805Z,97.86
2022-11-04T08:34:04.781Z,97.44
2022-11-04T08:35:07.468Z,97.30
2022-11-04T08:36:17.712Z,97.25
2022-11-04T08:37:23.524Z,97.23
2022-11-04T08:38:25.365Z,97.12
2022-11-04T08:39:27.130Z,96.48
2022-11-04T08:40:29.072Z,96.54
2022-11-04T08:41:33.424Z,96.66
2022-11-04T08:42:36.676Z,95.90
2022-11-04T08:43:39.032Z,95.90
2022-11-04T08:44:41.991Z,96.29
2022-11-04T08:45:45.889Z,96.92
2022-11-04T08:46:48.901Z,97.14
2022-11-04T08:47:50.824Z,97.40
2022-11-04T08:48:52.709Z,97.26
2022-11-04T08:49:54.665Z,96.89
2022-11-04T08:50:57.710Z,97.45
2022-11-04T08:51:59.749Z,97.97
2022-11-04T08:53:03.930Z,98.33
2022-11-04T08:54:07.026Z,98.76
2022-11-04T08:55:10.181Z,98.81
2022-11-04T08:56:19.330Z,98.82
2022-11-04T08:57:21.300Z,98.60
2022-11-04T08:58:23.801Z,98.66
2022-11-04T08:59:25.502Z,99.11
2022-11-04T09:00:27.845Z,99.28
2022-11-04T09:01:35.882Z,99.33
2022-11-04T09:02:37.529Z,99.22
2022-11-04T09:03:40.727Z,98.83
2022-11-04T09:04:42.625Z,98.78
2022-11-04T09:05:44.462Z,98.56
2022-11-04T09:06:47.902Z,97.87
2022-11-04T09:07:50.211Z,97.79
2022-11-04T09:08:53.851Z,97.83
2022-11-04T09:09:55.648Z,97.25
2022-11-04T09:10:58.693Z,97.36
2022-11-04T09:12:00.641Z,97.29
2022-11-04T09:13:03.605Z,97.33
2022-11-04T09:14:06.114Z,97.33
2022-11-04T09:15:09.365Z,96.98
2022-11-04T09:16:14.197Z,96.86
2022-11-04T09:17:16.281Z,97.14
2022-11-04T09:18:18.825Z,95.47
2022-11-04T09:19:20.909Z,95.47
2022-11-04T09:20:23.835Z,95.90
2022-11-04T09:21:26.798Z,95.85
2022-11-04T09:22:28.673Z,95.64
2022-11-04T09:23:32.149Z,95.21
2022-11-04T09:24:35.163Z,95.21
2022-11-04T09:25:37.337Z,95.19
2022-11-04T09:26:39.267Z,95.16
2022-11-04T09:27:41.038Z,94.44
2022-11-04T09:28:43.053Z,94.85
2022-11-04T09:29:45.086Z,95.34
2022-11-04T09:30:50.552Z,96.07
2022-11-04T09:31:53.057Z,95.01
2022-11-04T09:32:54.920Z,94.48
2022-11-04T09:33:57.070Z,94.68
2022-11-04T09:34:59.002Z,94.96
2022-11-04T09:36:00.833Z,93.69
2022-11-04T09:37:02.802Z,92.76
2022-11-04T09:38:05.280Z,94.30
2022-11-04T09:39:07.104Z,94.92
2022-11-04T09:41:35.318Z,94.17
2022-11-04T09:42:43.666Z,92.51
2022-11-04T09:43:50.311Z,91.41
2022-11-04T09:46:13.285Z,95.77
2022-11-04T09:47:21.644Z,96.38
2022-11-04T09:48:25.323Z,95.62
2022-11-04T09:49:30.882Z,95.51
2022-11-04T09:50:36.500Z,93.64
2022-11-04T09:51:53.818Z,92.42
2022-11-04T09:52:48.661Z,92.70
2022-11-04T09:53:54.182Z,95.78
2022-11-04T09:55:17.732Z,95.00
2022-11-04T09:56:22.566Z,93.82
2022-11-04T09:57:25.336Z,92.31
2022-11-04T09:58:30.687Z,91.48
2022-11-04T09:59:33.946Z,91.06
2022-11-04T10:00:39.323Z,90.74
2022-11-04T10:01:55.446Z,90.54
2022-11-04T10:03:04.196Z,91.26
2022-11-04T10:04:25.804Z,90.36
2022-11-04T10:05:34.543Z,90.19
2022-11-04T10:07:03.084Z,89.06
2022-11-04T10:08:38.054Z,89.47
2022-11-04T10:10:03.787Z,88.62
2022-11-04T10:11:12.126Z,89.74
2022-11-04T10:12:23.503Z,90.89
2022-11-04T10:13:31.830Z,93.66
2022-11-04T10:14:47.375Z,91.41
2022-11-04T10:16:14.454Z,89.58
2022-11-04T10:19:06.179Z,89.29
2022-11-04T10:20:28.646Z,89.69
2022-11-04T10:21:40.600Z,88.62
2022-11-04T10:22:58.165Z,87.93
2022-11-04T10:25:16.090Z,87.65
2022-11-04T10:26:24.383Z,86.83
2022-11-04T10:27:35.446Z,86.98
2022-11-04T10:28:43.662Z,86.37
2022-11-04T10:29:55.688Z,85.30
2022-11-04T10:30:59.323Z,84.36
2022-11-04T10:32:04.663Z,85.26
2022-11-04T10:33:13.150Z,86.02
2022-11-04T10:34:18.998Z,86.45
2022-11-04T10:35:31.570Z,86.22
2022-11-04T10:36:35.675Z,90.43
2022-11-04T10:37:37.624Z,88.99
2022-11-04T10:38:46.972Z,90.08
2022-11-04T10:39:49.047Z,90.08
2022-11-04T10:40:54.056Z,88.91
2022-11-04T10:41:57.166Z,88.35
2022-11-04T10:43:03.087Z,86.17
2022-11-04T14:37:55.903Z,94.05
2022-11-04T14:39:13.548Z,94.14
2022-11-04T14:40:29.177Z,94.00
2022-11-04T14:41:41.450Z,96.33
2022-11-04T14:42:50.579Z,98.28
2022-11-04T14:43:58.879Z,95.95
2022-11-04T14:45:01.376Z,94.75
2022-11-04T14:46:03.722Z,92.69
2022-11-04T14:47:22.088Z,92.89
2022-11-04T14:48:24.472Z,93.46
2022-11-04T14:49:29.978Z,93.93
2022-11-04T14:50:32.245Z,93.97
2022-11-04T14:51:39.731Z,93.62
2022-11-04T14:52:45.796Z,96.18
2022-11-04T14:53:48.681Z,95.72
2022-11-04T14:55:03.323Z,93.55
2022-11-04T14:56:23.506Z,92.49
2022-11-04T14:57:24.020Z,93.03
2022-11-04T14:58:27.608Z,93.11
2022-11-04T14:59:29.583Z,92.60
2022-11-04T15:00:38.848Z,93.88
2022-11-04T15:01:42.361Z,95.46
2022-11-04T15:02:45.604Z,91.40
2022-11-04T15:05:02.091Z,92.99
2022-11-04T15:06:06.696Z,91.05
2022-11-04T15:07:12.427Z,92.40
2022-11-04T15:08:41.570Z,90.52
2022-11-04T15:09:49.241Z,90.04
2022-11-04T15:10:53.424Z,89.86
2022-11-04T15:12:14.535Z,90.30
2022-11-04T15:13:19.862Z,90.77
2022-11-04T15:14:24.530Z,90.87
2022-11-04T15:15:39.319Z,91.34
2022-11-04T15:16:44.140Z,91.59
2022-11-04T15:17:47.240Z,91.92
2022-11-04T15:18:51.993Z,92.10
2022-11-04T15:19:56.838Z,92.09
2022-11-04T15:21:02.187Z,92.33
2022-11-04T15:22:06.222Z,92.19
2022-11-04T15:23:12.663Z,92.14
2022-11-04T15:24:17.308Z,92.62
2022-11-04T15:25:19.525Z,92.73
2022-11-04T15:26:30.151Z,92.68
2022-11-04T15:27:32.435Z,92.70
2022-11-04T15:28:38.001Z,92.88
2022-11-04T15:29:40.092Z,92.79
2022-11-04T15:30:41.916Z,92.97
2022-11-04T15:31:57.011Z,93.43
2022-11-04T15:33:01.935Z,93.65
2022-11-04T15:34:09.196Z,93.24
2022-11-04T15:35:12.756Z,93.01
2022-11-04T15:36:26.075Z,92.78
2022-11-04T15:37:32.626Z,92.93
2022-11-04T15:38:37.726Z,92.97
2022-11-04T15:39:43.892Z,92.63
2022-11-04T15:40:46.788Z,92.93
2022-11-04T15:43:05.026Z,92.71
2022-11-04T15:44:19.529Z,92.58
2022-11-04T15:45:41.293Z,92.49
2022-11-04T15:46:52.119Z,92.77
2022-11-04T15:48:24.399Z,92.58
2022-11-04T15:49:30.750Z,92.63
2022-11-04T15:50:33.907Z,92.36
2022-11-04T15:51:42.700Z,92.09
2022-11-04T15:52:51.881Z,92.08
2022-11-04T15:54:03.493Z,91.74
2022-11-04T15:55:08.585Z,91.94
2022-11-04T15:56:17.857Z,91.94
2022-11-04T15:57:27.572Z,92.21
2022-11-04T15:58:30.532Z,92.39
2022-11-04T15:59:36.075Z,92.00
2022-11-04T16:00:39.851Z,91.69
2022-11-04T16:01:48.935Z,91.80
2022-11-04T16:02:54.393Z,91.55
2022-11-04T16:03:59.471Z,91.29
2022-11-04T16:05:13.292Z,91.69
2022-11-04T16:06:15.369Z,91.92
2022-11-04T16:07:22.601Z,92.31
2022-11-04T16:08:28.363Z,92.64
2022-11-04T16:09:30.269Z,92.43
2022-11-04T16:10:35.167Z,92.38
2022-11-04T16:11:37.780Z,92.93
2022-11-04T16:12:44.153Z,93.31
2022-11-04T16:13:46.334Z,93.40
2022-11-04T16:14:53.370Z,93.51
2022-11-04T16:16:02.162Z,93.78
2022-11-04T16:17:07.283Z,93.94
2022-11-04T16:18:24.945Z,94.29
2022-11-04T16:19:29.629Z,94.82
2022-11-04T16:20:33.278Z,95.20
2022-11-04T16:21:36.615Z,95.39
2022-11-04T16:22:39.937Z,96.05
2022-11-04T16:23:49.252Z,96.03
2022-11-04T16:24:53.498Z,96.02
2022-11-04T16:25:58.982Z,96.08
2022-11-04T16:27:01.031Z,96.06
2022-11-04T16:28:03.223Z,97.17
2022-11-04T16:29:08.865Z,97.31
2022-11-04T16:30:20.408Z,97.77
2022-11-04T16:31:26.866Z,98.04
2022-11-04T16:32:34.591Z,97.99
2022-11-04T16:33:38.150Z,98.42
2022-11-04T16:34:40.448Z,98.16
2022-11-04T16:35:42.295Z,98.70
2022-11-04T16:36:44.301Z,98.56
2022-11-04T16:37:46.655Z,98.48
2022-11-04T16:38:54.662Z,98.49
2022-11-04T16:39:58.324Z,98.69
2022-11-04T16:41:00.873Z,98.31
2022-11-04T16:42:04.676Z,98.33
2022-11-04T16:43:10.480Z,98.45
2022-11-04T16:44:22.213Z,98.18
2022-11-04T16:45:28.082Z,97.90
2022-11-04T16:46:33.641Z,97.93
2022-11-04T16:47:39.099Z,97.92
2022-11-04T16:48:41.638Z,98.25
2022-11-04T16:49:44.592Z,98.34
2022-11-04T16:50:47.280Z,98.25
2022-11-04T16:51:55.006Z,98.26
2022-11-04T16:52:58.522Z,98.28
2022-11-04T16:54:01.231Z,98.18
2022-11-04T16:55:04.282Z,97.76
2022-11-04T16:56:08.731Z,97.48
2022-11-04T16:57:13.084Z,97.49
2022-11-04T16:58:18.225Z,97.49
2022-11-04T16:59:20.959Z,97.24
2022-11-04T17:00:26.335Z,97.15
2022-11-04T17:01:29.025Z,97.13
2022-11-04T17:02:34.405Z,97.41
2022-11-04T17:03:36.506Z,97.13
2022-11-04T17:04:38.266Z,96.42
2022-11-04T17:05:40.204Z,96.37
2022-11-04T17:06:43.178Z,96.10
2022-11-04T17:07:55.537Z,96.62
2022-11-04T17:08:49.365Z,96.27
2022-11-04T17:09:51.131Z,96.95
2022-11-04T17:10:53.307Z,96.60
2022-11-04T17:11:55.841Z,96.42
2022-11-04T17:12:59.411Z,96.27
2022-11-04T17:14:01.930Z,96.10
2022-11-04T17:15:05.668Z,96.14
2022-11-04T17:16:16.276Z,96.15
2022-11-04T17:17:18.631Z,95.77
2022-11-04T17:18:20.343Z,95.52
2022-11-04T17:19:22.573Z,95.47
2022-11-04T17:20:25.086Z,95.83
2022-11-04T17:21:27.656Z,96.31
2022-11-04T17:22:32.225Z,96.53
2022-11-04T17:23:34.859Z,96.49
2022-11-04T17:24:37.159Z,96.37
2022-11-04T17:25:39.866Z,96.17
2022-11-04T17:26:41.636Z,96.08
2022-11-04T17:27:52.011Z,96.12
2022-11-04T17:28:54.897Z,96.29
2022-11-04T17:29:56.776Z,96.49
2022-11-04T17:30:59.900Z,96.30
2022-11-04T17:32:01.885Z,95.68
2022-11-04T17:33:04.353Z,95.48
2022-11-04T17:34:07.154Z,94.97
2022-11-04T17:35:12.110Z,94.95
2022-11-04T17:36:18.626Z,94.87
2022-11-04T17:37:20.827Z,94.72
2022-11-04T17:38:23.966Z,94.65
2022-11-04T17:39:27.330Z,94.71
2022-11-04T17:40:29.493Z,94.17
2022-11-04T17:41:32.421Z,94.23
2022-11-04T17:42:34.201Z,94.01
2022-11-04T17:43:36.738Z,94.30
2022-11-04T17:44:38.696Z,94.77
2022-11-04T17:45:42.921Z,95.03
2022-11-04T17:46:44.989Z,95.19
2022-11-04T17:47:46.886Z,94.71
2022-11-04T17:48:48.938Z,94.71
2022-11-04T17:49:51.998Z,94.58
2022-11-04T17:50:54.317Z,95.19
2022-11-04T17:51:57.742Z,95.25
2022-11-04T17:53:00.591Z,95.21
2022-11-04T17:54:03.230Z,95.34
2022-11-04T17:55:05.765Z,95.14
2022-11-04T17:56:20.418Z,94.92
2022-11-04T17:57:22.838Z,95.20
2022-11-04T17:58:25.326Z,95.72
2022-11-04T21:00:58.291Z,98.59
2022-11-04T21:02:00.604Z,98.61
2022-11-04T21:03:02.656Z,98.96
2022-11-04T21:04:07.574Z,99.05
2022-11-04T21:05:09.435Z,98.52
2022-11-04T21:06:13.828Z,99.27
2022-11-04T21:07:17.333Z,100.00
2022-11-04T21:08:19.603Z,100.00
2022-11-04T21:09:21.753Z,100.00
2022-11-04T21:10:24.962Z,100.00
2022-11-04T21:11:31.931Z,100.00
2022-11-04T21:12:32.233Z,100.00
2022-11-04T21:13:35.402Z,100.00
2022-11-04T21:14:37.518Z,100.00
2022-11-04T21:15:39.581Z,100.00
2022-11-04T21:16:48.683Z,100.00
2022-11-04T21:17:56.511Z,100.00
2022-11-04T21:19:08.586Z,100.00
2022-11-04T21:20:35.973Z,100.00
2022-11-04T21:22:12.843Z,100.00
2022-11-04T21:26:43.409Z,100.00
2022-11-04T21:27:45.531Z,100.00
2022-11-04T21:28:48.405Z,96.28
2022-11-04T21:29:50.177Z,94.07
2022-11-04T21:30:53.639Z,93.78
2022-11-04T21:31:55.565Z,93.56
2022-11-04T21:32:57.295Z,93.21
2022-11-04T21:33:59.750Z,92.56
2022-11-04T21:35:01.454Z,91.92
2022-11-04T21:36:09.530Z,91.17
2022-11-04T21:37:11.993Z,90.40
2022-11-04T21:38:15.882Z,89.57
2022-11-04T21:39:18.201Z,89.20
2022-11-04T21:40:21.364Z,88.93
2022-11-04T21:41:25.286Z,88.79
2022-11-04T21:42:29.724Z,88.70
2022-11-04T21:43:31.691Z,88.02
2022-11-04T21:44:33.923Z,87.19
2022-11-04T21:45:35.931Z,86.75
2022-11-04T21:46:38.234Z,86.27
2022-11-04T21:47:39.993Z,85.85
2022-11-04T21:48:42.466Z,85.53
2022-11-04T21:49:45.452Z,85.12
2022-11-04T21:50:47.465Z,84.96
2022-11-04T21:51:49.915Z,84.86
2022-11-04T21:52:51.843Z,84.60
2022-11-04T21:53:55.084Z,84.28
2022-11-04T21:54:57.468Z,84.03
2022-11-04T21:56:21.374Z,84.07
2022-11-04T21:57:23.225Z,83.98
2022-11-04T21:58:25.876Z,83.82
2022-11-04T21:59:28.160Z,83.92
2022-11-04T22:00:29.970Z,84.08
2022-11-04T22:01:33.580Z,84.14
2022-11-04T22:02:38.800Z,84.25
2022-11-04T22:03:42.235Z,84.15
2022-11-04T22:04:44.077Z,84.19
2022-11-04T22:05:47.607Z,84.80
2022-11-04T22:06:49.593Z,85.00
2022-11-04T22:07:51.404Z,85.23
2022-11-04T22:08:54.242Z,85.17
2022-11-04T22:09:56.174Z,85.20
2022-11-04T22:12:17.975Z,85.14
2022-11-04T22:13:21.186Z,84.82
2022-11-04T22:14:23.014Z,84.62
2022-11-04T22:15:25.841Z,84.63
2022-11-04T22:16:30.264Z,84.68
2022-11-04T22:17:33.227Z,84.83
2022-11-04T22:18:35.197Z,84.60
2022-11-04T22:19:36.943Z,84.60
2022-11-04T22:20:38.998Z,84.24
2022-11-04T22:21:43.973Z,84.35
2022-11-04T22:22:47.906Z,84.35
2022-11-04T22:23:50.958Z,84.42
2022-11-04T22:24:52.752Z,83.90
2022-11-04T22:26:06.170Z,83.29
2022-11-04T22:27:08.002Z,82.89
2022-11-04T22:28:09.850Z,82.64
2022-11-04T22:29:16.455Z,82.64
2022-11-04T22:30:18.727Z,82.77
2022-11-04T22:31:26.688Z,82.74
2022-11-04T22:32:28.984Z,82.78
2022-11-04T22:33:32.028Z,82.76
2022-11-04T22:34:35.181Z,82.70
2022-11-04T22:35:37.207Z,82.61
2022-11-04T22:36:39.312Z,82.53
2022-11-04T22:37:41.026Z,82.68
2022-11-04T22:38:43.565Z,82.82
2022-11-04T22:39:45.522Z,82.75
2022-11-04T22:40:56.088Z,82.86
2022-11-04T22:41:59.001Z,82.92
2022-11-04T22:43:01.334Z,82.95
2022-11-04T22:44:03.495Z,82.75
2022-11-04T22:45:06.205Z,82.63
2022-11-04T22:46:19.667Z,82.65
2022-11-04T22:47:21.917Z,82.49
2022-11-04T22:48:23.828Z,82.29
2022-11-04T22:49:25.706Z,82.39
2022-11-04T22:50:27.417Z,82.20
2022-11-04T22:51:29.176Z,82.02
2022-11-04T22:52:30.988Z,82.08
2022-11-04T22:53:32.899Z,82.72
2022-11-04T22:54:35.119Z,82.78
2022-11-04T22:55:37.565Z,82.53
2022-11-04T22:56:39.699Z,82.24
2022-11-04T22:57:41.498Z,82.11
2022-11-04T22:58:44.126Z,81.89
2022-11-04T22:59:45.907Z,81.93
2022-11-04T23:00:51.906Z,81.93
2022-11-04T23:01:53.864Z,81.85
2022-11-04T23:02:58.401Z,81.92
2022-11-04T23:04:00.675Z,81.71
2022-11-04T23:05:03.013Z,81.45
2022-11-04T23:06:06.597Z,81.30
2022-11-04T23:07:08.474Z,81.13
2022-11-04T23:08:10.199Z,81.04
2022-11-04T23:09:12.561Z,80.79
2022-11-04T23:10:14.720Z,80.23
2022-11-04T23:11:20.243Z,80.03
2022-11-04T23:12:22.745Z,80.32
2022-11-04T23:13:24.460Z,80.84